Time;durP1;ratioP1;P1;durP2;ratioP2;P2;SDS_P1;SDS_P2;PMS_P1;PMS_P2;Temp;Humidity;BMP_temperature;BMP_pressure;BME280_temperature;BME280_humidity;BME280_pressure;Samples;Min_cycle;Max_cycle;Signal;HPM_P1;HPM_P2
2022/11/04 00:01:22;;;;;;;2.10;1.47;;;13.70;99.90;;;;;;5071462;28;20216;-70
2022/11/04 00:03:49;;;;;;;2.07;1.30;;;13.70;99.90;;;;;;5071966;28;20235;-62
2022/11/04 00:06:17;;;;;;;1.93;1.30;;;13.70;99.90;;;;;;5071913;28;20228;-61
2022/11/04 00:08:48;;;;;;;2.00;1.70;;;13.70;99.90;;;;;;5071980;28;20676;-62
2022/11/04 00:13:59;;;;;;;1.03;1.00;;;13.70;99.90;;;;;;5071835;28;20302;-61
2022/11/04 00:19:10;;;;;;;1.87;1.00;;;13.70;99.90;;;;;;5071551;28;20226;-61
2022/11/04 00:29:52;;;;;;;1.10;0.80;;;13.70;99.90;;;;;;5070957;28;20204;-61
2022/11/04 00:35:03;;;;;;;2.90;1.00;;;13.60;99.90;;;;;;5071699;28;20196;-61
2022/11/04 00:37:31;;;;;;;0.77;0.77;;;13.60;99.90;;;;;;5071791;28;20215;-61
2022/11/04 00:39:58;;;;;;;1.30;0.80;;;13.60;99.90;;;;;;5070927;28;20243;-60
2022/11/04 00:42:24;;;;;;;1.67;1.00;;;13.60;99.90;;;;;;5071907;28;20232;-61
2022/11/04 00:44:51;;;;;;;1.13;0.97;;;13.60;99.90;;;;;;5071563;28;20209;-61
2022/11/04 00:47:18;;;;;;;1.60;1.40;;;13.60;99.90;;;;;;5075095;28;20205;-61
2022/11/04 00:49:44;;;;;;;8.13;3.70;;;13.70;99.90;;;;;;5075218;28;20212;-61
2022/11/04 00:52:11;;;;;;;2.13;1.50;;;13.70;99.90;;;;;;5074257;28;20201;-61
2022/11/04 00:54:39;;;;;;;1.57;1.10;;;13.70;99.90;;;;;;5075018;28;20448;-61
2022/11/04 00:57:08;;;;;;;2.83;1.20;;;13.70;99.90;;;;;;5074994;28;20228;-62
2022/11/04 00:59:35;;;;;;;1.73;1.10;;;13.80;99.90;;;;;;5075078;28;20216;-62
2022/11/04 01:02:02;;;;;;;1.83;0.87;;;13.80;99.90;;;;;;5074223;28;20561;-63
2022/11/04 01:04:29;;;;;;;0.93;0.90;;;13.80;99.90;;;;;;5074836;28;20208;-63
2022/11/04 01:06:55;;;;;;;3.00;1.20;;;13.80;99.90;;;;;;5074844;28;20204;-62
2022/11/04 01:09:22;;;;;;;1.00;0.80;;;13.80;99.90;;;;;;5074634;28;20208;-62
2022/11/04 01:11:51;;;;;;;1.20;0.90;;;13.90;99.90;;;;;;5074124;28;20205;-62
2022/11/04 01:14:18;;;;;;;3.20;1.20;;;13.90;99.90;;;;;;5074647;28;20231;-62
2022/11/04 01:16:44;;;;;;;1.20;1.00;;;13.90;99.90;;;;;;5074732;28;20205;-62
2022/11/04 01:19:12;;;;;;;2.23;0.80;;;13.90;99.90;;;;;;5074378;28;20236;-63
2022/11/04 01:21:38;;;;;;;1.10;0.90;;;13.90;99.90;;;;;;5074174;28;20204;-62
2022/11/04 01:24:06;;;;;;;0.70;0.70;;;13.90;99.90;;;;;;5074521;28;20236;-63
2022/11/04 01:26:32;;;;;;;0.80;0.80;;;13.90;99.90;;;;;;5074721;28;20212;-62
2022/11/04 01:29:00;;;;;;;1.30;0.80;;;13.80;99.90;;;;;;5074368;28;20204;-62
2022/11/04 01:31:29;;;;;;;0.80;0.80;;;13.80;99.90;;;;;;5073669;28;20208;-62
2022/11/04 01:33:56;;;;;;;1.03;0.93;;;13.80;99.90;;;;;;5104056;22;20228;-57
2022/11/04 01:36:23;;;;;;;1.33;0.90;;;13.90;99.90;;;;;;5086353;28;20283;-58
2022/11/04 01:38:51;;;;;;;1.30;1.00;;;13.90;99.90;;;;;;5095002;28;20565;-57
2022/11/04 01:41:20;;;;;;;1.20;1.10;;;13.90;99.90;;;;;;5094544;28;20295;-57
2022/11/04 01:43:50;;;;;;;2.23;0.90;;;13.90;99.90;;;;;;5094925;28;20227;-57
2022/11/04 01:46:28;;;;;;;1.17;1.00;;;13.90;99.90;;;;;;5095002;28;20227;-57
2022/11/04 01:48:59;;;;;;;0.67;0.67;;;13.90;99.90;;;;;;5094946;28;20297;-58
2022/11/04 01:51:28;;;;;;;1.77;0.90;;;13.90;99.90;;;;;;5094875;28;20566;-57
2022/11/04 01:53:56;;;;;;;1.00;0.70;;;13.80;99.90;;;;;;5094562;28;20229;-57
2022/11/04 01:56:26;;;;;;;0.80;0.77;;;13.80;99.90;;;;;;5094174;28;20204;-58
2022/11/04 01:58:55;;;;;;;0.70;0.63;;;13.70;99.90;;;;;;5094068;28;20204;-57
2022/11/04 02:01:23;;;;;;;1.00;0.90;;;13.70;99.90;;;;;;5094317;28;20224;-57
2022/11/04 02:03:54;;;;;;;1.10;0.83;;;13.60;99.90;;;;;;5094596;28;20616;-57
2022/11/04 02:06:22;;;;;;;1.20;0.73;;;13.60;99.90;;;;;;5094859;28;20267;-58
2022/11/04 02:08:49;;;;;;;1.13;1.00;;;13.50;99.90;;;;;;5094979;28;20285;-58
2022/11/04 02:13:57;;;;;;;0.90;0.77;;;13.40;99.90;;;;;;5094573;28;20282;-57
2022/11/04 02:16:37;;;;;;;1.00;0.70;;;13.40;99.90;;;;;;5095515;28;20495;-57
2022/11/04 02:19:23;;;;;;;0.73;0.60;;;13.40;99.90;;;;;;5096025;28;20287;-57
2022/11/04 02:22:28;;;;;;;2.23;0.87;;;13.30;99.90;;;;;;5095191;28;20671;-57
2022/11/04 02:25:14;;;;;;;1.47;0.80;;;13.20;99.90;;;;;;5095799;28;20204;-57
2022/11/04 02:27:56;;;;;;;0.60;0.60;;;13.20;99.90;;;;;;5094713;28;20654;-58
2022/11/04 02:30:27;;;;;;;1.27;0.70;;;13.10;99.90;;;;;;5094484;28;20204;-58
2022/11/04 02:33:11;;;;;;;0.80;0.73;;;13.00;99.90;;;;;;5094566;28;20233;-58
2022/11/04 02:35:47;;;;;;;2.77;0.93;;;13.00;99.90;;;;;;5095277;28;20651;-57
2022/11/04 02:38:29;;;;;;;0.80;0.80;;;13.00;99.90;;;;;;5095064;28;20256;-58
2022/11/04 02:41:15;;;;;;;0.93;0.60;;;13.00;99.90;;;;;;5094079;28;20208;-58
2022/11/04 02:43:51;;;;;;;0.97;0.80;;;13.00;99.90;;;;;;5094332;28;20224;-58
2022/11/04 02:46:25;;;;;;;1.27;0.70;;;13.00;99.90;;;;;;5093937;28;20287;-58
2022/11/04 02:48:59;;;;;;;1.47;0.70;;;13.00;99.90;;;;;;5093911;28;20204;-57
2022/11/04 02:51:31;;;;;;;0.60;0.60;;;13.00;99.90;;;;;;5093276;28;20211;-58
2022/11/04 02:54:06;;;;;;;0.67;0.67;;;12.90;99.90;;;;;;5093484;28;20303;-58
2022/11/04 02:56:38;;;;;;;1.10;0.63;;;12.90;99.90;;;;;;5093537;28;20214;-58
2022/11/04 02:59:09;;;;;;;1.17;0.70;;;12.90;99.90;;;;;;5093814;28;20402;-58
2022/11/04 03:01:41;;;;;;;0.60;0.60;;;12.90;99.90;;;;;;5093294;28;20303;-58
2022/11/04 03:04:13;;;;;;;0.70;0.63;;;12.90;99.90;;;;;;5093339;28;20315;-58
2022/11/04 03:06:42;;;;;;;2.77;0.70;;;12.80;99.90;;;;;;5093781;28;20215;-58
2022/11/04 03:09:13;;;;;;;1.60;0.70;;;12.80;99.90;;;;;;5093145;28;20204;-57
2022/11/04 03:11:44;;;;;;;1.43;0.80;;;12.70;99.90;;;;;;5093182;28;20295;-57
2022/11/04 03:14:15;;;;;;;2.00;0.70;;;12.70;99.90;;;;;;5093004;28;20224;-57
2022/11/04 03:16:47;;;;;;;0.70;0.60;;;12.70;99.90;;;;;;5093046;28;20672;-58
2022/11/04 03:19:19;;;;;;;2.37;0.67;;;12.80;99.90;;;;;;5093524;28;20299;-57
2022/11/04 03:21:57;;;;;;;0.50;0.50;;;12.90;99.90;;;;;;5092820;28;20216;-58
2022/11/04 03:24:25;;;;;;;1.43;0.80;;;12.90;99.90;;;;;;5092930;28;20315;-57
2022/11/04 03:26:57;;;;;;;2.20;0.90;;;12.90;99.90;;;;;;5093149;28;20204;-58
2022/11/04 03:29:29;;;;;;;1.30;0.87;;;12.90;99.90;;;;;;5093493;28;20208;-59
2022/11/04 03:32:06;;;;;;;1.13;0.53;;;12.80;99.90;;;;;;5092186;28;20204;-57
2022/11/04 03:34:33;;;;;;;1.27;0.57;;;12.70;99.90;;;;;;5092793;28;20228;-57
2022/11/04 03:37:00;;;;;;;1.10;0.63;;;12.60;99.90;;;;;;5093203;28;20292;-58
2022/11/04 03:39:27;;;;;;;2.07;0.60;;;12.60;99.90;;;;;;5092940;28;20204;-58
2022/11/04 03:41:58;;;;;;;2.10;0.80;;;12.60;99.90;;;;;;5092753;28;20211;-57
2022/11/04 03:44:25;;;;;;;1.63;0.70;;;12.60;99.90;;;;;;5092814;28;20255;-57
2022/11/04 03:46:52;;;;;;;1.10;0.50;;;12.50;99.90;;;;;;5093104;28;20583;-57
2022/11/04 03:49:23;;;;;;;0.67;0.53;;;12.60;99.90;;;;;;5092915;28;20208;-57
2022/11/04 03:51:50;;;;;;;1.30;0.80;;;12.60;99.90;;;;;;5092005;28;20208;-57
2022/11/04 03:54:18;;;;;;;0.90;0.50;;;12.60;99.90;;;;;;5092709;28;20230;-57
2022/11/04 03:57:12;;;;;;;2.00;0.80;;;12.60;99.90;;;;;;5092929;28;20208;-57
2022/11/04 04:00:08;;;;;;;0.90;0.80;;;12.60;99.90;;;;;;5093783;28;20205;-57
2022/11/04 04:03:03;;;;;;;2.30;0.70;;;12.60;99.90;;;;;;5091235;28;20235;-57
2022/11/04 04:05:35;;;;;;;5.77;4.27;;;12.50;99.90;;;;;;5090720;28;20687;-57
2022/11/04 04:08:13;;;;;;;2.27;1.60;;;12.50;99.90;;;;;;5092712;28;20234;-57
2022/11/04 04:10:47;;;;;;;1.80;0.90;;;12.50;99.90;;;;;;5092391;28;20233;-58
2022/11/04 04:13:23;;;;;;;4.63;1.00;;;12.40;99.90;;;;;;5093004;28;20703;-57
2022/11/04 04:15:54;;;;;;;1.93;0.77;;;12.30;99.90;;;;;;5092732;28;20219;-57
2022/11/04 04:18:29;;;;;;;1.53;0.87;;;12.20;99.90;;;;;;5093337;28;20212;-57
2022/11/04 04:21:01;;;;;;;3.23;1.20;;;12.20;99.90;;;;;;5094865;28;20288;-57
2022/11/04 04:29:05;;;;;;;1.30;0.83;;;12.20;99.90;;;;;;5096991;28;20273;-57
2022/11/04 04:31:51;;;;;;;3.37;1.10;;;12.10;99.90;;;;;;5096038;28;20204;-57
2022/11/04 04:34:21;;;;;;;2.57;0.97;;;12.10;99.90;;;;;;5096176;28;20258;-57
2022/11/04 04:36:53;;;;;;;1.70;1.00;;;12.10;99.90;;;;;;5096629;28;20287;-57
2022/11/04 04:45:04;;;;;;;1.33;0.93;;;12.10;99.90;;;;;;5096160;28;20715;-56
2022/11/04 04:47:42;;;;;;;1.30;0.80;;;12.10;99.90;;;;;;5096270;28;20208;-57
2022/11/04 04:50:11;;;;;;;3.40;0.80;;;12.10;99.90;;;;;;5096073;28;20208;-56
2022/11/04 04:52:42;;;;;;;1.60;1.27;;;12.10;99.90;;;;;;5096019;28;20220;-57
2022/11/04 04:55:10;;;;;;;1.47;0.90;;;12.10;99.90;;;;;;5096019;28;20243;-57
2022/11/04 04:57:37;;;;;;;1.90;0.83;;;12.10;99.90;;;;;;5095958;28;20207;-57
2022/11/04 05:00:06;;;;;;;1.83;0.80;;;12.00;99.90;;;;;;5095821;28;20200;-57
2022/11/04 05:02:33;;;;;;;1.93;0.93;;;12.00;99.90;;;;;;5094945;28;20264;-57
2022/11/04 05:05:00;;;;;;;0.70;0.70;;;11.90;99.90;;;;;;5095682;28;20208;-57
2022/11/04 05:07:27;;;;;;;2.40;0.70;;;11.90;99.90;;;;;;5095991;28;20204;-56
2022/11/04 05:09:55;;;;;;;3.60;1.20;;;11.80;99.90;;;;;;5095895;28;20201;-57
2022/11/04 05:12:22;;;;;;;2.97;1.10;;;11.70;99.90;;;;;;5095056;28;20211;-57
2022/11/04 05:14:50;;;;;;;1.87;1.27;;;11.70;99.90;;;;;;5095533;28;20203;-58
2022/11/04 05:17:17;;;;;;;1.47;1.10;;;11.60;99.90;;;;;;5095567;28;20226;-58
2022/11/04 05:19:44;;;;;;;2.57;1.30;;;11.60;99.90;;;;;;5096236;28;20200;-58
2022/11/04 05:22:11;;;;;;;2.37;0.90;;;11.60;99.90;;;;;;5095600;28;20204;-56
2022/11/04 05:24:37;;;;;;;1.53;1.20;;;11.60;99.90;;;;;;5095354;28;20231;-56
2022/11/04 05:27:06;;;;;;;2.03;1.50;;;11.60;99.90;;;;;;5095750;28;20208;-57
2022/11/04 05:29:32;;;;;;;2.90;1.80;;;11.60;99.90;;;;;;5096005;28;20204;-57
2022/11/04 05:31:59;;;;;;;4.77;2.23;;;11.60;99.90;;;;;;5093691;28;20204;-57
2022/11/04 05:34:26;;;;;;;3.73;2.77;;;11.50;99.90;;;;;;5095140;28;20621;-57
2022/11/04 05:36:53;;;;;;;4.50;2.90;;;11.50;99.90;;;;;;5095221;28;20204;-57
2022/11/04 05:39:20;;;;;;;4.40;1.90;;;11.40;99.90;;;;;;5095146;28;20207;-56
2022/11/04 05:41:46;;;;;;;4.33;2.90;;;11.30;99.90;;;;;;5094153;28;20624;-56
2022/11/04 05:44:15;;;;;;;7.87;4.37;;;11.30;99.90;;;;;;5094520;28;20626;-58
2022/11/04 05:46:41;;;;;;;5.27;3.10;;;11.30;99.90;;;;;;5094859;28;20208;-58
2022/11/04 05:49:09;;;;;;;5.27;3.20;;;11.20;99.90;;;;;;5095006;28;20219;-58
2022/11/04 05:51:36;;;;;;;6.20;3.93;;;11.20;99.90;;;;;;5094667;28;20336;-57
2022/11/04 05:54:03;;;;;;;5.27;2.50;;;11.20;99.90;;;;;;5094746;28;20306;-56
2022/11/04 05:56:30;;;;;;;8.20;2.30;;;11.10;99.90;;;;;;5094822;28;20204;-56
2022/11/04 05:58:57;;;;;;;23.70;19.57;;;11.20;99.90;;;;;;5094605;28;20211;-56
2022/11/04 06:01:28;;;;;;;3.27;2.10;;;11.20;99.90;;;;;;5094883;28;20209;-57
2022/11/04 06:03:55;;;;;;;6.67;3.40;;;11.20;99.90;;;;;;5095175;28;20684;-57
2022/11/04 06:06:23;;;;;;;3.20;1.50;;;11.20;99.90;;;;;;5095597;28;20208;-57
2022/11/04 06:08:51;;;;;;;6.50;1.93;;;11.10;99.90;;;;;;5095280;28;20290;-57
2022/11/04 06:11:18;;;;;;;3.33;1.77;;;11.10;99.90;;;;;;5094418;28;20668;-57
2022/11/04 06:13:45;;;;;;;5.77;3.47;;;11.00;99.90;;;;;;5094968;28;20226;-57
2022/11/04 06:16:12;;;;;;;2.70;1.90;;;10.90;99.90;;;;;;5094956;28;20632;-57
2022/11/04 06:18:40;;;;;;;3.93;1.47;;;10.80;99.90;;;;;;5094798;28;20204;-58
2022/11/04 06:21:24;;;;;;;1.47;1.20;;;10.70;99.90;;;;;;5094528;28;20204;-57
2022/11/04 06:23:51;;;;;;;2.83;1.30;;;10.60;99.90;;;;;;5094214;28;20224;-56
2022/11/04 06:26:18;;;;;;;2.07;1.20;;;10.50;99.90;;;;;;5094371;28;20307;-56
2022/11/04 06:28:46;;;;;;;3.03;1.70;;;10.50;99.90;;;;;;5094380;28;20583;-56
2022/11/04 06:31:13;;;;;;;4.00;1.70;;;10.60;99.90;;;;;;5093162;28;20207;-56
2022/11/04 06:33:42;;;;;;;3.50;1.40;;;10.40;99.90;;;;;;5093840;28;20332;-56
2022/11/04 06:36:11;;;;;;;3.57;1.53;;;10.40;99.90;;;;;;5093602;28;20208;-55
2022/11/04 06:38:39;;;;;;;4.53;2.10;;;10.20;99.90;;;;;;5093751;28;20204;-55
2022/11/04 06:41:07;;;;;;;4.80;2.00;;;10.10;99.90;;;;;;5093470;28;20269;-55
2022/11/04 06:43:34;;;;;;;1.90;1.33;;;10.20;99.90;;;;;;5093259;28;20250;-56
2022/11/04 06:46:02;;;;;;;3.93;1.73;;;10.20;99.90;;;;;;5093785;28;20584;-57
2022/11/04 06:48:30;;;;;;;5.33;2.00;;;10.20;99.90;;;;;;5093453;28;20212;-56
2022/11/04 06:50:59;;;;;;;2.80;1.73;;;10.20;99.90;;;;;;5093271;28;20758;-55
2022/11/04 06:53:27;;;;;;;5.00;2.30;;;10.30;99.90;;;;;;5093679;28;20312;-55
2022/11/04 06:56:01;;;;;;;10.40;5.30;;;10.20;99.90;;;;;;5093619;28;20204;-56
2022/11/04 06:58:28;;;;;;;3.67;2.13;;;10.20;99.90;;;;;;5093366;28;20208;-55
2022/11/04 07:00:55;;;;;;;4.00;2.67;;;10.40;99.90;;;;;;5093063;28;20257;-56
2022/11/04 07:03:22;;;;;;;4.53;2.33;;;10.50;99.90;;;;;;5093414;28;20224;-55
2022/11/04 07:05:49;;;;;;;3.90;2.33;;;10.70;99.90;;;;;;5093882;28;20208;-56
2022/11/04 07:08:18;;;;;;;5.87;2.40;;;10.70;99.90;;;;;;5093183;28;20204;-56
2022/11/04 07:10:45;;;;;;;4.40;2.30;;;10.80;99.90;;;;;;5092802;28;20265;-54
2022/11/04 07:13:11;;;;;;;5.00;2.17;;;10.80;99.90;;;;;;5093134;28;20232;-56
2022/11/04 07:15:39;;;;;;;4.60;2.30;;;10.80;99.90;;;;;;5093857;28;20208;-56
2022/11/04 07:18:06;;;;;;;2.80;1.73;;;10.90;99.90;;;;;;5094234;28;20211;-57
2022/11/04 07:20:33;;;;;;;2.60;1.90;;;10.90;99.90;;;;;;5094307;28;20204;-56
2022/11/04 07:23:00;;;;;;;3.67;2.13;;;10.90;99.90;;;;;;5093846;28;20220;-56
2022/11/04 07:25:30;;;;;;;5.03;2.10;;;11.00;99.90;;;;;;5093256;28;20244;-56
2022/11/04 07:27:57;;;;;;;4.83;3.47;;;11.20;99.90;;;;;;5093463;28;20205;-57
2022/11/04 07:30:24;;;;;;;5.40;2.87;;;11.30;99.90;;;;;;5092850;28;20200;-56
2022/11/04 07:32:51;;;;;;;5.43;2.30;;;11.40;99.90;;;;;;5093111;28;20281;-57
2022/11/04 07:35:18;;;;;;;3.90;2.40;;;11.50;99.90;;;;;;5093538;28;20574;-56
2022/11/04 07:37:45;;;;;;;4.03;2.17;;;11.70;99.90;;;;;;5093450;28;20208;-56
2022/11/04 07:40:12;;;;;;;3.73;2.27;;;11.60;99.90;;;;;;5093717;28;20204;-56
2022/11/04 07:42:40;;;;;;;3.10;2.03;;;11.50;99.90;;;;;;5092855;28;20224;-56
2022/11/04 07:45:08;;;;;;;3.13;1.90;;;11.40;99.90;;;;;;5092986;28;20231;-56
2022/11/04 07:47:35;;;;;;;4.37;1.57;;;11.40;99.90;;;;;;5093587;28;20204;-57
2022/11/04 07:50:02;;;;;;;4.60;1.63;;;11.60;99.90;;;;;;5093484;28;20615;-57
2022/11/04 07:52:29;;;;;;;3.13;1.30;;;11.70;99.90;;;;;;5093551;28;20231;-57
2022/11/04 07:54:56;;;;;;;2.97;1.10;;;11.80;99.90;;;;;;5093256;28;20204;-56
2022/11/04 07:57:23;;;;;;;1.80;1.20;;;11.90;99.90;;;;;;5094419;28;20668;-57
2022/11/04 07:59:51;;;;;;;2.67;1.20;;;12.10;99.90;;;;;;5096278;28;20743;-56
2022/11/04 08:02:18;;;;;;;2.67;1.30;;;12.10;99.90;;;;;;5094263;28;20204;-57
2022/11/04 08:04:45;;;;;;;2.07;1.20;;;12.20;99.90;;;;;;5093897;28;20304;-56
2022/11/04 08:07:12;;;;;;;4.17;1.30;;;12.20;99.90;;;;;;5093300;28;20254;-56
2022/11/04 08:09:38;;;;;;;2.97;1.47;;;12.30;99.90;;;;;;5093321;28;20688;-56
2022/11/04 08:12:06;;;;;;;2.37;1.40;;;12.40;99.90;;;;;;5092955;28;20208;-56
2022/11/04 08:14:33;;;;;;;1.57;0.90;;;12.50;99.90;;;;;;5093824;28;20224;-58
2022/11/04 08:17:01;;;;;;;4.17;3.37;;;12.60;99.90;;;;;;5094262;28;20204;-56
2022/11/04 08:19:28;;;;;;;2.80;1.10;;;12.70;99.90;;;;;;5094933;28;20204;-57
2022/11/04 08:21:55;;;;;;;4.43;0.90;;;12.80;99.90;;;;;;5094284;28;20200;-57
2022/11/04 08:24:22;;;;;;;1.80;0.83;;;13.00;99.90;;;;;;5093938;28;20219;-57
2022/11/04 08:26:49;;;;;;;3.53;1.00;;;13.20;99.90;;;;;;5094337;28;20261;-57
2022/11/04 08:29:16;;;;;;;3.70;1.03;;;13.30;99.90;;;;;;5094786;28;20212;-57
2022/11/04 08:31:43;;;;;;;3.73;1.20;;;13.50;99.90;;;;;;5093834;28;20622;-56
2022/11/04 08:34:13;;;;;;;2.20;1.53;;;13.70;99.90;;;;;;5094182;28;20230;-56
2022/11/04 08:36:41;;;;;;;1.83;1.00;;;13.80;99.90;;;;;;5094013;28;20200;-56
2022/11/04 08:39:09;;;;;;;2.40;0.80;;;14.00;99.90;;;;;;5094076;28;20682;-56
2022/11/04 08:41:39;;;;;;;2.67;1.03;;;14.20;99.90;;;;;;5093654;28;20199;-56
2022/11/04 08:44:07;;;;;;;1.80;0.87;;;14.30;99.90;;;;;;5093950;28;20228;-56
2022/11/04 08:46:36;;;;;;;2.87;1.10;;;14.40;99.90;;;;;;5092931;28;20307;-56
2022/11/04 08:49:04;;;;;;;0.70;0.57;;;14.50;99.90;;;;;;5093556;28;20208;-56
2022/11/04 08:51:34;;;;;;;3.37;0.77;;;14.50;99.90;;;;;;5092783;28;20215;-56
2022/11/04 08:54:01;;;;;;;2.30;1.03;;;14.50;99.90;;;;;;5093267;28;20234;-57
2022/11/04 08:56:31;;;;;;;3.60;0.80;;;14.60;99.90;;;;;;5093055;28;20200;-58
2022/11/04 08:59:00;;;;;;;3.23;1.10;;;14.70;99.90;;;;;;5092920;28;20208;-57
2022/11/04 09:01:28;;;;;;;1.93;0.90;;;14.80;99.90;;;;;;5092302;28;20675;-57
2022/11/04 09:03:55;;;;;;;1.10;0.70;;;14.90;99.90;;;;;;5092490;28;20220;-57
2022/11/04 09:06:25;;;;;;;1.30;0.70;;;14.80;99.90;;;;;;5093116;28;20205;-57
2022/11/04 09:08:54;;;;;;;1.70;0.83;;;14.80;99.90;;;;;;5095849;28;20243;-57
2022/11/04 09:11:21;;;;;;;1.07;0.70;;;14.80;99.90;;;;;;5095166;28;20235;-57
2022/11/04 09:13:48;;;;;;;2.03;1.00;;;14.90;99.90;;;;;;5095447;28;20226;-57
2022/11/04 09:16:16;;;;;;;1.00;0.73;;;15.00;99.90;;;;;;5095414;28;20204;-57
2022/11/04 09:18:43;;;;;;;1.80;1.00;;;15.20;99.90;;;;;;5095878;28;20208;-56
2022/11/04 09:21:11;;;;;;;2.57;0.83;;;15.30;99.90;;;;;;5094853;28;20206;-56
2022/11/04 09:23:38;;;;;;;1.57;0.70;;;15.40;99.90;;;;;;5095928;28;20701;-56
2022/11/04 09:26:09;;;;;;;2.23;0.70;;;15.30;99.90;;;;;;5095591;28;20246;-57
2022/11/04 09:28:36;;;;;;;3.13;1.20;;;15.40;99.90;;;;;;5095021;28;20208;-57
2022/11/04 09:31:07;;;;;;;4.23;2.20;;;15.50;99.90;;;;;;5094577;28;20205;-57
2022/11/04 09:33:34;;;;;;;1.83;1.08;;;15.60;99.90;;;;;;5094623;28;20239;-56
2022/11/04 09:36:01;;;;;;;1.45;0.95;;;15.80;99.90;;;;;;5095420;28;20208;-57
2022/11/04 09:38:28;;;;;;;3.37;1.30;;;15.80;99.90;;;;;;5095135;28;20570;-57
2022/11/04 09:40:55;;;;;;;3.75;1.50;;;15.80;99.90;;;;;;5094593;28;20204;-57
2022/11/04 09:43:36;;;;;;;1.48;0.90;;;15.80;99.90;;;;;;5094915;28;20224;-57
2022/11/04 09:46:04;;;;;;;2.03;1.13;;;15.80;99.90;;;;;;5095497;28;20220;-57
2022/11/04 09:48:37;;;;;;;2.22;1.17;;;15.80;99.90;;;;;;5096169;28;20208;-56
2022/11/04 09:51:06;;;;;;;2.28;0.98;;;15.80;99.90;;;;;;5094710;28;20567;-57
2022/11/04 09:53:40;;;;;;;4.50;0.82;;;16.00;99.90;;;;;;5094776;28;20350;-57
2022/11/04 09:56:16;;;;;;;1.88;0.90;;;16.10;99.90;;;;;;5094875;28;20204;-57
2022/11/04 09:58:44;;;;;;;2.92;2.33;;;16.20;99.90;;;;;;5094318;28;20188;-57
2022/11/04 10:01:21;;;;;;;2.03;0.70;;;16.30;99.90;;;;;;5094185;28;20214;-56
2022/11/04 10:04:01;;;;;;;3.35;2.97;;;16.20;99.90;;;;;;5094719;28;20232;-57
2022/11/04 10:06:36;;;;;;;2.37;1.40;;;16.10;99.90;;;;;;5094327;28;20200;-57
2022/11/04 10:09:17;;;;;;;7.82;4.95;;;16.20;99.90;;;;;;5094524;28;20215;-57
2022/11/04 10:11:54;;;;;;;2.30;1.58;;;16.30;99.90;;;;;;5093973;28;20211;-57
2022/11/04 10:14:42;;;;;;;6.68;4.75;;;16.40;99.90;;;;;;5094089;28;20234;-57
2022/11/04 10:17:23;;;;;;;0.98;0.70;;;16.60;99.90;;;;;;5094073;28;20208;-57
2022/11/04 10:20:02;;;;;;;1.98;0.90;;;16.60;99.90;;;;;;5093835;28;20208;-57
2022/11/04 10:22:32;;;;;;;23.40;12.95;;;16.50;99.90;;;;;;5093495;28;20204;-57
2022/11/04 10:25:08;;;;;;;3.72;1.50;;;16.40;99.90;;;;;;5094210;28;20230;-56
2022/11/04 10:27:38;;;;;;;3.80;2.35;;;16.50;99.90;;;;;;5094065;28;20214;-57
2022/11/04 10:30:15;;;;;;;2.53;1.70;;;16.50;99.90;;;;;;5094665;28;20240;-57
2022/11/04 10:32:53;;;;;;;4.43;3.08;;;16.60;99.90;;;;;;5092539;28;20234;-56
2022/11/04 10:35:28;;;;;;;2.95;1.17;;;16.60;99.90;;;;;;5093978;28;20203;-56
2022/11/04 10:37:58;;;;;;;2.53;1.42;;;16.60;99.90;;;;;;5093859;28;20215;-57
2022/11/04 10:40:27;;;;;;;2.60;1.52;;;16.70;99.90;;;;;;5094424;28;20210;-57
2022/11/04 10:42:57;;;;;;;2.00;1.00;;;16.80;99.90;;;;;;5093345;28;20281;-57
2022/11/04 10:45:34;;;;;;;4.18;1.27;;;16.90;99.90;;;;;;5093369;28;20224;-57
2022/11/04 10:48:06;;;;;;;4.68;0.75;;;17.00;99.90;;;;;;5093852;28;20203;-57
2022/11/04 10:50:37;;;;;;;3.42;0.90;;;16.90;99.90;;;;;;5093558;28;20200;-57
2022/11/04 10:53:13;;;;;;;2.10;0.90;;;16.90;99.90;;;;;;5093271;28;20224;-57
2022/11/04 10:55:46;;;;;;;1.33;0.73;;;17.00;99.90;;;;;;5093483;28;20200;-57
2022/11/04 10:58:20;;;;;;;1.20;0.73;;;17.00;99.90;;;;;;5093945;28;20211;-57
2022/11/04 11:00:48;;;;;;;2.20;1.10;;;17.00;99.90;;;;;;5093491;28;20649;-57
2022/11/04 11:03:28;;;;;;;2.30;0.70;;;17.10;99.90;;;;;;5093553;28;20224;-58
2022/11/04 11:06:14;;;;;;;1.35;0.70;;;17.30;99.90;;;;;;5093903;28;20235;-57
2022/11/04 11:08:42;;;;;;;2.78;1.20;;;17.50;99.90;;;;;;5094183;28;20817;-56
2022/11/04 11:11:11;;;;;;;3.22;1.25;;;17.70;99.90;;;;;;5093290;28;20216;-57
2022/11/04 11:13:40;;;;;;;2.97;0.90;;;17.80;99.90;;;;;;5093935;28;20250;-58
2022/11/04 11:16:11;;;;;;;59.88;34.13;;;17.80;99.90;;;;;;5093782;28;20679;-57
2022/11/04 11:18:40;;;;;;;55.20;26.90;;;17.80;99.90;;;;;;5093670;28;20258;-62
2022/11/04 11:21:11;;;;;;;32.15;16.88;;;17.80;99.90;;;;;;5093233;28;20304;-59
2022/11/04 11:23:41;;;;;;;54.08;27.63;;;17.80;99.90;;;;;;5093737;28;20576;-59
2022/11/04 11:26:09;;;;;;;149.57;82.38;;;17.80;99.90;;;;;;5093509;28;20230;-58
2022/11/04 11:28:39;;;;;;;29.92;17.38;;;17.80;99.90;;;;;;5093412;28;20215;-58
2022/11/04 11:31:22;;;;;;;5.95;3.88;;;17.80;99.90;;;;;;5093406;28;20281;-57
2022/11/04 11:33:51;;;;;;;14.60;9.60;;;17.70;99.90;;;;;;5092552;28;20236;-59
2022/11/04 11:36:21;;;;;;;46.28;32.55;;;17.60;99.90;;;;;;5092847;28;20572;-58
2022/11/04 11:39:00;;;;;;;20.40;14.50;;;17.60;99.90;;;;;;5093183;28;20241;-58
2022/11/04 11:41:33;;;;;;;9.10;5.10;;;17.50;99.90;;;;;;5092360;28;20204;-57
2022/11/04 11:44:04;;;;;;;4.10;1.60;;;17.50;99.90;;;;;;5092777;28;20228;-57
2022/11/04 11:46:35;;;;;;;100.25;43.83;;;17.60;99.90;;;;;;5092599;28;20343;-58
2022/11/04 11:49:03;;;;;;;7.68;4.20;;;17.60;99.90;;;;;;5092782;28;20215;-58
2022/11/04 11:51:33;;;;;;;3.80;1.80;;;17.60;99.90;;;;;;5092435;28;20230;-58
2022/11/04 11:54:21;;;;;;;3.40;2.20;;;17.70;99.90;;;;;;5093320;28;20243;-58
2022/11/04 11:56:51;;;;;;;3.55;1.52;;;17.60;99.90;;;;;;5092342;28;20201;-58
2022/11/04 11:59:26;;;;;;;4.38;1.90;;;17.60;99.90;;;;;;5092905;28;20211;-59
2022/11/04 12:02:02;;;;;;;5.57;1.45;;;17.70;99.90;;;;;;5092252;28;20207;-58
2022/11/04 12:04:30;;;;;;;7.63;2.47;;;17.70;99.90;;;;;;5092698;28;20228;-58
2022/11/04 12:07:07;;;;;;;5.47;1.40;;;17.80;99.90;;;;;;5092164;28;20228;-58
2022/11/04 12:09:38;;;;;;;4.47;1.17;;;17.90;99.90;;;;;;5092444;28;20206;-58
2022/11/04 12:12:26;;;;;;;4.88;1.40;;;18.00;99.90;;;;;;5092273;28;20209;-58
2022/11/04 12:15:17;;;;;;;5.57;2.75;;;18.00;99.90;;;;;;5092868;28;20207;-58
2022/11/04 12:17:57;;;;;;;3.00;1.30;;;18.20;99.90;;;;;;5093000;28;20265;-58
2022/11/04 12:20:45;;;;;;;4.63;1.60;;;18.30;99.90;;;;;;5092975;28;20566;-57
2022/11/04 12:23:20;;;;;;;6.03;1.30;;;18.30;99.90;;;;;;5092047;28;20228;-58
2022/11/04 12:25:59;;;;;;;8.70;1.65;;;18.30;99.90;;;;;;5093132;28;20219;-57
2022/11/04 12:28:36;;;;;;;6.68;2.85;;;18.30;99.90;;;;;;5093133;28;20227;-58
2022/11/04 12:31:14;;;;;;;6.63;1.70;;;18.20;99.90;;;;;;5092114;28;20597;-58
2022/11/04 12:33:48;;;;;;;4.63;1.80;;;18.20;99.90;;;;;;5092558;28;20260;-59
2022/11/04 12:36:32;;;;;;;7.63;2.40;;;18.30;99.90;;;;;;5092873;28;20196;-58
2022/11/04 12:39:15;;;;;;;5.55;1.60;;;18.20;99.90;;;;;;5091923;28;20207;-58
2022/11/04 12:41:50;;;;;;;5.28;1.65;;;18.10;99.90;;;;;;5093498;28;20222;-58
2022/11/04 12:44:28;;;;;;;3.42;1.30;;;18.00;99.90;;;;;;5096284;28;20230;-58
2022/11/04 12:47:02;;;;;;;3.47;1.55;;;18.00;99.90;;;;;;5096061;28;20311;-58
2022/11/04 12:49:45;;;;;;;7.22;1.88;;;18.00;99.90;;;;;;5095940;28;20218;-58
2022/11/04 12:52:25;;;;;;;4.63;1.80;;;17.90;99.90;;;;;;5095595;28;20211;-58
2022/11/04 12:55:04;;;;;;;3.28;1.50;;;17.90;99.90;;;;;;5096317;28;20234;-57
2022/11/04 12:57:38;;;;;;;4.78;1.52;;;17.90;99.90;;;;;;5095966;28;20208;-58
2022/11/04 13:00:10;;;;;;;2.70;1.30;;;17.90;99.90;;;;;;5096170;28;20208;-59
2022/11/04 13:02:43;;;;;;;4.93;1.90;;;17.80;99.90;;;;;;5095804;28;20220;-58
2022/11/04 13:05:26;;;;;;;4.25;2.20;;;17.70;99.90;;;;;;5096168;28;20232;-59
2022/11/04 13:07:58;;;;;;;5.18;1.80;;;17.70;99.90;;;;;;5095966;28;20204;-57
2022/11/04 13:10:33;;;;;;;5.28;1.70;;;17.70;99.90;;;;;;5096427;28;20210;-59
2022/11/04 13:13:02;;;;;;;13.90;10.75;;;17.70;99.90;;;;;;5095585;28;20223;-59
2022/11/04 13:15:33;;;;;;;6.63;2.13;;;17.70;99.90;;;;;;5095656;28;20296;-58
2022/11/04 13:18:05;;;;;;;6.03;1.52;;;17.70;99.90;;;;;;5095275;28;20208;-57
2022/11/04 13:20:42;;;;;;;4.07;1.30;;;17.70;99.90;;;;;;5095185;28;20212;-58
2022/11/04 13:23:16;;;;;;;6.45;1.52;;;17.60;99.90;;;;;;5095046;28;20295;-59
2022/11/04 13:25:46;;;;;;;4.90;1.58;;;17.60;99.90;;;;;;5095541;28;20592;-57
2022/11/04 13:28:21;;;;;;;3.45;1.48;;;17.50;99.90;;;;;;5095518;28;20214;-58
2022/11/04 13:30:59;;;;;;;6.03;1.20;;;17.50;99.90;;;;;;5095487;28;20332;-57
2022/11/04 13:33:33;;;;;;;2.88;1.50;;;17.40;99.90;;;;;;5095018;28;20293;-58
2022/11/04 13:36:11;;;;;;;4.88;1.45;;;17.40;99.90;;;;;;5095398;28;20204;-63